createdAt,value
2016-09-01T00:00:03.261Z,71.45
2016-09-01T00:01:04.824Z,71.35
2016-09-01T00:02:05.507Z,71.35
2016-09-01T00:03:06.243Z,71.93
2016-09-01T00:04:06.969Z,72.31
2016-09-01T00:05:07.671Z,71.93
2016-09-01T00:06:08.338Z,72.31
2016-09-01T00:07:09.042Z,72.89
2016-09-01T00:08:09.737Z,72.99
2016-09-01T00:09:10.474Z,73.14
2016-09-01T00:10:11.228Z,73.04
2016-09-01T00:11:11.956Z,73.81
2016-09-01T00:12:12.616Z,73.62
2016-09-01T00:13:13.299Z,73.62
2016-09-01T00:14:14.019Z,74.01
2016-09-01T00:15:14.824Z,73.81
2016-09-01T00:16:15.497Z,73.81
2016-09-01T00:17:16.218Z,74.01
2016-09-01T00:18:16.905Z,73.62
2016-09-01T00:19:17.588Z,73.66
2016-09-01T00:20:18.301Z,73.81
2016-09-01T00:21:19.021Z,73.85
2016-09-01T00:22:19.733Z,73.62
2016-09-01T00:23:20.467Z,73.85
2016-09-01T00:24:21.183Z,73.72
2016-09-01T00:25:21.858Z,74.19
2016-09-01T00:26:22.582Z,73.81
2016-09-01T00:27:23.330Z,73.81
2016-09-01T00:28:24.000Z,74.19
2016-09-01T00:29:24.728Z,73.81
2016-09-01T00:30:25.402Z,73.81
2016-09-01T00:31:26.098Z,73.62
2016-09-01T00:32:26.830Z,73.91
2016-09-01T00:33:27.504Z,74.48
2016-09-01T00:34:28.219Z,74.48
2016-09-01T00:35:28.899Z,74.87
2016-09-01T00:36:29.580Z,74.87
2016-09-01T00:37:30.317Z,75.21
2016-09-01T00:38:30.970Z,75.54
2016-09-01T00:39:31.652Z,75.15
2016-09-01T00:40:32.369Z,74.96
2016-09-01T00:41:33.053Z,74.39
2016-09-01T00:42:33.742Z,74.77
2016-09-01T00:43:34.482Z,74.68
2016-09-01T00:44:35.158Z,74.77
2016-09-01T00:45:35.836Z,74.19
2016-09-01T00:46:36.503Z,74.58
2016-09-01T00:47:37.206Z,74.48
2016-09-01T00:48:37.952Z,74.58
2016-09-01T00:49:38.654Z,74.48
2016-09-01T00:50:39.390Z,74.58
2016-09-01T00:51:40.098Z,74.58
2016-09-01T00:52:40.791Z,74.77
2016-09-01T00:53:41.481Z,74.48
2016-09-01T00:54:42.237Z,74.48
2016-09-01T00:55:42.916Z,74.77
2016-09-01T00:56:43.586Z,74.58
2016-09-01T00:57:44.337Z,74.48
2016-09-01T00:58:45.125Z,74.39
2016-09-01T00:59:45.796Z,74.77
2016-09-01T01:00:46.510Z,74.29
2016-09-01T01:01:47.204Z,74.87
2016-09-01T01:02:47.891Z,74.39
2016-09-01T01:03:48.579Z,74.77
2016-09-01T01:04:49.302Z,74.58
2016-09-01T01:05:50.022Z,74.48
2016-09-01T01:06:50.708Z,74.48
2016-09-01T01:07:51.389Z,74.58
2016-09-01T01:08:52.114Z,74.19
2016-09-01T01:09:52.828Z,74.19
2016-09-01T01:10:53.517Z,73.91
2016-09-01T01:11:54.198Z,74.13
2016-09-01T01:12:54.903Z,74.29
2016-09-01T01:13:55.596Z,73.91
2016-09-01T01:14:56.262Z,73.91
2016-09-01T01:15:56.992Z,73.85
2016-09-01T01:16:57.719Z,73.72
2016-09-01T01:17:58.401Z,73.85
2016-09-01T01:18:59.054Z,73.62
2016-09-01T01:19:59.738Z,73.46
2016-09-01T01:21:00.435Z,73.37
2016-09-01T01:22:01.341Z,73.27
2016-09-01T01:23:01.993Z,73.24
2016-09-01T01:24:02.666Z,73.24
2016-09-01T01:25:03.336Z,72.89
2016-09-01T01:26:04.095Z,72.85
2016-09-01T01:27:04.741Z,72.99
2016-09-01T01:28:05.417Z,72.75
2016-09-01T01:29:06.083Z,73.24
2016-09-01T01:30:06.773Z,72.75
2016-09-01T01:31:07.462Z,73.24
2016-09-01T01:32:08.163Z,72.95
2016-09-01T01:33:08.851Z,72.95
2016-09-01T01:34:09.634Z,72.95
2016-09-01T01:35:10.308Z,73.24
2016-09-01T01:36:11.002Z,73.14
2016-09-01T01:37:11.678Z,73.24
2016-09-01T01:38:12.380Z,73.04
2016-09-01T01:39:13.100Z,72.85
2016-09-01T01:40:13.841Z,72.37
2016-09-01T01:41:14.540Z,72.37
2016-09-01T01:42:15.216Z,72.66
2016-09-01T01:43:15.946Z,72.18
2016-09-01T01:44:16.619Z,71.89
2016-09-01T01:45:17.314Z,71.61
2016-09-01T01:46:17.999Z,71.03
2016-09-01T01:47:18.673Z,71.03
2016-09-01T01:48:19.323Z,71.03
2016-09-01T01:49:20.002Z,71.12
2016-09-01T01:50:20.679Z,70.55
2016-09-01T01:51:21.399Z,71.31
2016-09-01T01:52:22.085Z,71.03
2016-09-01T01:53:22.822Z,71.03
2016-09-01T01:54:23.549Z,71.22
2016-09-01T01:55:24.241Z,70.93
2016-09-01T01:56:24.971Z,71.41
2016-09-01T01:57:25.639Z,71.03
2016-09-01T01:58:26.322Z,71.31
2016-09-01T01:59:27.005Z,71.12
2016-09-01T02:00:27.676Z,71.03
2016-09-01T02:01:28.379Z,71.03
2016-09-01T02:02:29.052Z,71.03
2016-09-01T02:03:29.733Z,70.64
2016-09-01T02:04:30.464Z,70.74
2016-09-01T02:05:31.139Z,70.74
2016-09-01T02:06:31.826Z,70.74
2016-09-01T02:07:32.555Z,70.45
2016-09-01T02:08:33.227Z,70.26
2016-09-01T02:09:33.984Z,70.17
2016-09-01T02:10:34.676Z,70.36
2016-09-01T02:11:35.431Z,70.55
2016-09-01T02:12:36.124Z,70.36
2016-09-01T02:13:36.767Z,70.26
2016-09-01T02:14:37.464Z,70.45
2016-09-01T02:15:38.141Z,70.84
2016-09-01T02:16:38.816Z,70.84
2016-09-01T02:17:39.541Z,70.84
2016-09-01T02:18:40.282Z,71.12
2016-09-01T02:19:40.914Z,70.64
2016-09-01T02:20:41.629Z,70.93
2016-09-01T02:21:42.328Z,70.74
2016-09-01T02:22:43.011Z,71.12
2016-09-01T02:23:43.751Z,71.31
2016-09-01T02:24:44.462Z,70.93
2016-09-01T02:25:45.155Z,71.22
2016-09-01T02:26:45.822Z,71.22
2016-09-01T02:27:46.515Z,71.31
2016-09-01T02:28:47.310Z,71.22
2016-09-01T02:29:47.993Z,71.31
2016-09-01T02:30:48.680Z,71.31
2016-09-01T02:31:49.366Z,71.03
2016-09-01T02:32:50.079Z,71.51
2016-09-01T02:33:50.758Z,71.12
2016-09-01T02:34:51.429Z,70.93
2016-09-01T02:35:52.079Z,71.51
2016-09-01T02:36:52.781Z,71.51
2016-09-01T02:37:53.469Z,71.31
2016-09-01T02:38:54.182Z,71.95
2016-09-01T02:39:54.856Z,71.76
2016-09-01T02:40:55.581Z,71.66
2016-09-01T02:41:56.262Z,71.95
2016-09-01T02:42:56.967Z,71.95
2016-09-01T02:43:57.682Z,71.89
2016-09-01T02:44:58.375Z,71.86
2016-09-01T02:45:59.095Z,71.8
2016-09-01T02:46:59.827Z,72.08
2016-09-01T02:48:00.554Z,71.86
2016-09-01T02:49:01.268Z,71.86
2016-09-01T02:50:01.985Z,71.66
2016-09-01T02:51:02.691Z,71.76
2016-09-01T02:52:03.378Z,71.76
2016-09-01T02:53:04.080Z,71.66
2016-09-01T02:54:04.770Z,71.7
2016-09-01T02:55:05.473Z,72.08
2016-09-01T02:56:06.182Z,71.95
2016-09-01T02:57:06.875Z,72.05
2016-09-01T02:58:07.569Z,72.33
2016-09-01T02:59:08.234Z,72.24
2016-09-01T03:00:09.130Z,71.66
2016-09-01T03:01:09.923Z,72.14
2016-09-01T03:02:10.587Z,72.33
2016-09-01T03:03:11.308Z,72.91
2016-09-01T03:04:11.996Z,72.63
2016-09-01T03:05:12.708Z,72.33
2016-09-01T03:06:13.444Z,72.63
2016-09-01T03:07:14.223Z,72.81
2016-09-01T03:08:14.890Z,72.53
2016-09-01T03:09:15.602Z,72.81
2016-09-01T03:10:16.286Z,72.91
2016-09-01T03:11:16.990Z,73.1
2016-09-01T03:12:17.792Z,72.72
2016-09-01T03:13:18.460Z,72.53
2016-09-01T03:14:19.135Z,72.53
2016-09-01T03:15:19.817Z,72.91
2016-09-01T03:16:20.480Z,72.72
2016-09-01T03:17:21.199Z,73.26
2016-09-01T03:18:21.885Z,73.35
2016-09-01T03:19:22.575Z,73.68
2016-09-01T03:20:23.469Z,73.77
2016-09-01T03:21:24.099Z,73.39
2016-09-01T03:22:24.790Z,73.2
2016-09-01T03:23:25.463Z,73
2016-09-01T03:24:26.153Z,73.2
2016-09-01T03:25:26.870Z,73.3
2016-09-01T03:26:27.608Z,73.2
2016-09-01T03:27:28.288Z,73.87
2016-09-01T03:28:28.964Z,74.22
2016-09-01T03:29:29.677Z,74.22
2016-09-01T03:30:30.358Z,73.49
2016-09-01T03:31:31.064Z,73.45
2016-09-01T03:32:31.792Z,73.74
2016-09-01T03:33:32.524Z,74.51
2016-09-01T03:34:33.190Z,74.41
2016-09-01T03:35:33.933Z,74.51
2016-09-01T03:36:35.252Z,74.22
2016-09-01T03:37:35.907Z,74.41
2016-09-01T03:38:36.594Z,74.41
2016-09-01T03:39:37.290Z,74.41
2016-09-01T03:40:38.030Z,74.22
2016-09-01T03:41:38.707Z,74.69
2016-09-01T03:42:39.400Z,74.51
2016-09-01T03:43:40.106Z,74.6
2016-09-01T03:44:40.859Z,74.12
2016-09-01T03:45:41.606Z,74.89
2016-09-01T03:46:42.302Z,74.79
2016-09-01T03:47:43.024Z,75.18
2016-09-01T03:48:43.771Z,75.18
2016-09-01T03:49:44.447Z,74.69
2016-09-01T03:50:45.152Z,74.89
2016-09-01T03:51:45.927Z,75.18
2016-09-01T03:52:46.638Z,75.08
2016-09-01T03:53:47.391Z,75.08
2016-09-01T03:54:48.096Z,75.18
2016-09-01T03:55:48.848Z,75.08
2016-09-01T03:56:49.548Z,74.89
2016-09-01T03:57:50.265Z,75.18
2016-09-01T03:58:51.023Z,75.18
2016-09-01T03:59:51.686Z,75.46
2016-09-01T04:00:52.414Z,75.18
2016-09-01T04:01:53.103Z,75.37
2016-09-01T04:02:53.790Z,75.08
2016-09-01T04:03:54.477Z,75.08
2016-09-01T04:04:55.216Z,75.37
2016-09-01T04:05:55.890Z,75.18
2016-09-01T04:06:56.552Z,75.37
2016-09-01T04:07:57.292Z,75.18
2016-09-01T04:08:57.977Z,74.89
2016-09-01T04:09:58.680Z,75.18
2016-09-01T04:10:59.358Z,75.46
2016-09-01T04:12:00.082Z,75.56
2016-09-01T04:13:00.780Z,75.56
2016-09-01T04:14:01.502Z,75.37
2016-09-01T04:15:02.168Z,76.04
2016-09-01T04:16:03.021Z,75.56
2016-09-01T04:17:03.702Z,75.46
2016-09-01T04:18:04.376Z,75.56
2016-09-01T04:19:05.055Z,75.56
2016-09-01T04:20:05.777Z,76.23
2016-09-01T04:21:06.516Z,76.23
2016-09-01T04:22:07.237Z,76.32
2016-09-01T04:23:07.924Z,76.14
2016-09-01T04:24:08.615Z,76.23
2016-09-01T04:25:09.299Z,76.62
2016-09-01T04:26:09.944Z,76.32
2016-09-01T04:27:10.720Z,76.14
2016-09-01T04:28:11.409Z,76.32
2016-09-01T04:29:12.189Z,76.14
2016-09-01T04:30:12.872Z,76.52
2016-09-01T04:31:13.561Z,76.71
2016-09-01T04:32:14.280Z,76.9
2016-09-01T04:33:15.014Z,76.71
2016-09-01T04:34:15.711Z,77.09
2016-09-01T04:35:16.397Z,77.09
2016-09-01T04:36:17.068Z,76.9
2016-09-01T04:37:17.782Z,76.52
2016-09-01T04:38:18.455Z,76.52
2016-09-01T04:39:19.220Z,76.71
2016-09-01T04:40:20.036Z,77.29
2016-09-01T04:41:20.713Z,77
2016-09-01T04:42:21.491Z,76.71
2016-09-01T04:43:22.169Z,77.09
2016-09-01T04:44:22.857Z,77.29
2016-09-01T04:45:23.582Z,77.09
2016-09-01T04:46:24.270Z,77
2016-09-01T04:47:24.951Z,77.09
2016-09-01T04:48:25.686Z,77.29
2016-09-01T04:49:26.400Z,76.62
2016-09-01T04:50:27.132Z,76.62
2016-09-01T04:51:27.832Z,76.71
2016-09-01T04:52:28.546Z,76.9
2016-09-01T04:53:29.266Z,76.9
2016-09-01T04:54:29.938Z,76.9
2016-09-01T04:55:30.645Z,77.09
2016-09-01T04:56:31.308Z,77.38
2016-09-01T04:57:31.990Z,77.09
2016-09-01T04:58:32.669Z,77.29
2016-09-01T04:59:33.332Z,77.09
2016-09-01T05:00:34.008Z,77.09
2016-09-01T05:01:34.677Z,77.38
2016-09-01T05:02:35.385Z,77.58
2016-09-01T05:03:36.080Z,77.95
2016-09-01T05:04:36.790Z,77.67
2016-09-01T05:05:37.479Z,77.95
2016-09-01T05:06:38.221Z,77.76
2016-09-01T05:07:38.906Z,77.95
2016-09-01T05:08:39.596Z,77.48
2016-09-01T05:09:40.267Z,77.76
2016-09-01T05:10:40.995Z,77.19
2016-09-01T05:11:41.681Z,77.19
2016-09-01T05:12:42.443Z,76.9
2016-09-01T05:13:43.146Z,77.29
2016-09-01T05:14:43.836Z,76.9
2016-09-01T05:15:44.575Z,76.81
2016-09-01T05:16:45.269Z,76.9
2016-09-01T05:17:46.005Z,76.9
2016-09-01T05:18:46.683Z,76.9
2016-09-01T05:19:47.373Z,76.9
2016-09-01T05:20:48.066Z,76.65
2016-09-01T05:21:48.757Z,76.71
2016-09-01T05:22:49.491Z,76.84
2016-09-01T05:23:50.162Z,77.13
2016-09-01T05:24:50.862Z,77.04
2016-09-01T05:25:51.866Z,77.13
2016-09-01T05:26:52.569Z,76.46
2016-09-01T05:27:54.231Z,76.75
2016-09-01T05:28:55.654Z,75.89
2016-09-01T05:29:55.900Z,76.27
2016-09-01T05:30:58.018Z,76.07
2016-09-01T05:31:57.903Z,76.37
2016-09-01T05:32:58.655Z,76.27
2016-09-01T05:33:59.397Z,76.27
2016-09-01T05:35:00.131Z,76.46
2016-09-01T05:36:00.840Z,76.84
2016-09-01T05:37:01.521Z,76.27
2016-09-01T05:38:02.323Z,76.17
2016-09-01T05:39:03.070Z,76.07
2016-09-01T05:40:03.807Z,76.17
2016-09-01T05:41:04.556Z,76.07
2016-09-01T05:42:05.268Z,76.37
2016-09-01T05:43:06.012Z,76.65
2016-09-01T05:44:06.957Z,76.84
2016-09-01T05:45:08.364Z,76.84
2016-09-01T05:46:09.130Z,76.94
2016-09-01T05:47:09.849Z,77.8
2016-09-01T05:48:10.573Z,77.8
2016-09-01T05:49:11.298Z,77.51
2016-09-01T05:50:11.999Z,77.04
2016-09-01T05:51:12.728Z,77.04
2016-09-01T05:52:13.416Z,76.75
2016-09-01T05:53:15.297Z,76.37
2016-09-01T05:54:16.726Z,75.82
2016-09-01T05:55:17.704Z,75.82
2016-09-01T05:56:17.956Z,75.82
2016-09-01T05:57:18.717Z,75.6
2016-09-01T05:58:19.457Z,76.21
2016-09-01T05:59:20.144Z,76.37
2016-09-01T06:00:20.909Z,76.65
2016-09-01T06:01:21.855Z,76.46
2016-09-01T06:02:22.572Z,76.56
2016-09-01T06:03:23.324Z,76.31
2016-09-01T06:04:24.052Z,75.2
2016-09-01T06:05:24.864Z,72.25
2016-09-01T06:06:25.564Z,69.53
2016-09-01T06:07:26.336Z,67.65
2016-09-01T06:08:27.136Z,66.71
2016-09-01T06:09:27.889Z,64.98
2016-09-01T06:10:28.687Z,64.15
2016-09-01T06:11:29.414Z,63.31
2016-09-01T06:12:30.124Z,62.54
2016-09-01T06:13:30.770Z,61.9
2016-09-01T06:14:31.467Z,61.03
2016-09-01T06:15:32.236Z,60.64
2016-09-01T06:16:32.928Z,59.8
2016-09-01T06:17:33.648Z,58.65
2016-09-01T06:18:34.368Z,58.55
2016-09-01T06:19:35.208Z,59.9
2016-09-01T06:20:36.218Z,59.87
2016-09-01T06:21:36.970Z,58.58
2016-09-01T06:22:37.710Z,58.48
2016-09-01T06:23:38.458Z,57.52
2016-09-01T06:24:39.280Z,56.77
2016-09-01T06:25:40.091Z,56.32
2016-09-01T06:26:40.869Z,54.8
2016-09-01T06:27:41.635Z,54.32
2016-09-01T06:28:42.965Z,54.41
2016-09-01T06:29:45.428Z,52.8
2016-09-01T06:30:48.864Z,53.28
2016-09-01T06:31:50.280Z,53.38
2016-09-01T06:32:51.463Z,52.8
2016-09-01T06:33:52.453Z,51.04
2016-09-01T06:34:55.063Z,48.66
2016-09-01T06:35:56.442Z,46.58
2016-09-01T06:36:57.143Z,44.07
2016-09-01T06:37:58.045Z,43.88
2016-09-01T06:38:58.925Z,42.85
2016-09-01T06:39:59.892Z,41.01
2016-09-01T06:41:00.621Z,42.66
2016-09-01T06:42:01.372Z,41.8
2016-09-01T06:43:02.282Z,41.69
2016-09-01T06:44:03.112Z,41.59
2016-09-01T06:45:05.342Z,41.51
2016-09-01T06:46:06.312Z,41.69
2016-09-01T06:47:07.151Z,42.83
2016-09-01T06:48:07.957Z,43.05
2016-09-01T06:49:08.685Z,42.19
2016-09-01T06:50:09.453Z,40.56
2016-09-01T06:51:10.250Z,40
2016-09-01T06:52:11.302Z,40.09
2016-09-01T06:53:12.003Z,39.31
2016-09-01T06:54:12.728Z,38.73
2016-09-01T06:55:13.723Z,39.51
2016-09-01T06:56:14.855Z,41.49
2016-09-01T06:57:15.659Z,42.66
2016-09-01T06:58:17.432Z,43.32
2016-09-01T06:59:18.161Z,43.12
2016-09-01T07:00:18.902Z,43.22
2016-09-01T07:01:19.667Z,43.51
2016-09-01T07:02:20.375Z,43.12
2016-09-01T07:03:21.172Z,42.93
2016-09-01T07:04:21.875Z,42.83
2016-09-01T07:05:22.594Z,42.76
2016-09-01T07:06:24.366Z,42.95
2016-09-01T07:07:24.838Z,42.56
2016-09-01T07:08:25.780Z,42.66
2016-09-01T07:09:26.699Z,42.36
2016-09-01T07:10:27.394Z,41.98
2016-09-01T07:11:28.285Z,42
2016-09-01T07:12:30.368Z,41.61
2016-09-01T07:13:31.034Z,41.9
2016-09-01T07:14:31.861Z,41.34
2016-09-01T07:15:32.934Z,41.24
2016-09-01T07:16:33.611Z,41.05
2016-09-01T07:17:34.403Z,42
2016-09-01T07:18:35.112Z,42.58
2016-09-01T07:19:35.798Z,42.68
2016-09-01T07:20:36.541Z,42.7
2016-09-01T07:21:37.241Z,42.11
2016-09-01T07:22:37.977Z,45.52
2016-09-01T07:23:38.790Z,41.63
2016-09-01T07:24:39.753Z,41.46
2016-09-01T07:25:40.456Z,41.55
2016-09-01T07:26:41.209Z,41.06
2016-09-01T07:27:41.918Z,40.88
2016-09-01T07:28:42.644Z,40.6
2016-09-01T07:29:43.335Z,40.6
2016-09-01T07:30:44.064Z,39.92
2016-09-01T07:31:44.818Z,39.92
2016-09-01T07:32:45.620Z,39.62
2016-09-01T07:33:46.319Z,39.45
2016-09-01T07:34:47.100Z,38.57
2016-09-01T07:35:47.812Z,38.77
2016-09-01T07:36:48.526Z,38.67
2016-09-01T07:37:49.238Z,38.59
2016-09-01T07:38:49.975Z,38.2
2016-09-01T07:39:50.688Z,37.71
2016-09-01T07:40:51.416Z,37.52
2016-09-01T07:41:52.154Z,37.35
2016-09-01T07:42:52.924Z,37.05
2016-09-01T07:43:53.715Z,37.05
2016-09-01T07:44:54.453Z,36.68
2016-09-01T07:45:55.192Z,36.49
2016-09-01T07:46:55.940Z,36.39
2016-09-01T07:47:56.638Z,35.92
2016-09-01T07:48:57.342Z,35.72
2016-09-01T07:49:58.089Z,35.16
2016-09-01T07:50:58.827Z,34.77
2016-09-01T07:51:59.581Z,34.28
2016-09-01T07:53:00.315Z,34.18
2016-09-01T07:54:01.050Z,33.8
2016-09-01T07:55:01.732Z,33.31
2016-09-01T07:56:02.704Z,33.4
2016-09-01T07:57:03.781Z,33.31
2016-09-01T07:58:04.458Z,33.12
2016-09-01T07:59:05.218Z,33.01
2016-09-01T08:00:05.943Z,32.82
2016-09-01T08:01:06.723Z,32.82
2016-09-01T08:02:07.477Z,32.53
2016-09-01T08:03:08.148Z,32.26
2016-09-01T08:04:08.904Z,32.26
2016-09-01T08:05:09.805Z,32.45
2016-09-01T08:06:10.878Z,32.84
2016-09-01T08:07:11.813Z,32.26
2016-09-01T08:08:12.997Z,31.48
2016-09-01T08:09:13.765Z,31.48
2016-09-01T08:10:14.501Z,31.49
2016-09-01T08:11:15.219Z,31.59
2016-09-01T08:12:16.033Z,31.18
2016-09-01T08:13:16.732Z,31.48
2016-09-01T08:14:17.673Z,31.18
2016-09-01T08:15:18.549Z,31.38
2016-09-01T08:16:19.509Z,31.08
2016-09-01T08:17:20.228Z,31.08
2016-09-01T08:18:20.938Z,31.28
2016-09-01T08:19:21.712Z,31.28
2016-09-01T08:20:22.453Z,31.08
2016-09-01T08:21:23.237Z,31.1
2016-09-01T08:22:24.110Z,31
2016-09-01T08:23:24.857Z,30.71
2016-09-01T08:24:26.265Z,30.71
2016-09-01T08:25:26.907Z,30.4
2016-09-01T08:26:27.594Z,30.02
2016-09-01T08:27:28.412Z,30.12
2016-09-01T08:28:29.312Z,30.12
2016-09-01T08:29:30.004Z,30.1
2016-09-01T08:30:30.736Z,29.91
2016-09-01T08:31:31.756Z,30.1
2016-09-01T08:32:32.597Z,30.87
2016-09-01T08:33:33.553Z,31.25
2016-09-01T08:34:34.239Z,32.19
2016-09-01T08:35:35.271Z,32.76
2016-09-01T08:36:36.524Z,33.82
2016-09-01T08:37:37.714Z,34.97
2016-09-01T08:38:38.656Z,35.05
2016-09-01T08:39:39.353Z,35.63
2016-09-01T08:40:40.044Z,36.4
2016-09-01T08:41:40.780Z,36.77
2016-09-01T08:42:41.519Z,37.72
2016-09-01T08:43:42.271Z,38.19
2016-09-01T08:44:43.085Z,38.27
2016-09-01T08:45:43.809Z,39.53
2016-09-01T08:46:44.556Z,38.93
2016-09-01T08:47:45.318Z,39.69
2016-09-01T08:48:46.039Z,39.76
2016-09-01T08:49:46.740Z,40.44
2016-09-01T08:50:47.521Z,40.71
2016-09-01T08:51:48.329Z,41.1
2016-09-01T08:52:49.098Z,41.37
2016-09-01T08:53:49.978Z,42.07
2016-09-01T08:54:50.835Z,42.54
2016-09-01T08:55:51.611Z,42.61
2016-09-01T08:56:52.421Z,43.68
2016-09-01T08:57:53.163Z,44.06
2016-09-01T08:58:54.139Z,43.87
2016-09-01T08:59:54.920Z,43.96
2016-09-01T09:00:55.763Z,45.01
2016-09-01T09:01:56.699Z,44.91
2016-09-01T09:02:57.886Z,45.3
2016-09-01T09:03:59.010Z,45.4
2016-09-01T09:04:59.939Z,45.59
2016-09-01T09:06:01.930Z,45.86
2016-09-01T09:07:02.724Z,46.44
2016-09-01T09:08:03.460Z,46.15
2016-09-01T09:09:04.382Z,46.63
2016-09-01T09:10:05.192Z,46.53
2016-09-01T09:11:05.891Z,46.42
2016-09-01T09:12:06.689Z,47.09
2016-09-01T09:13:07.433Z,47.19
2016-09-01T09:14:08.190Z,47.48
2016-09-01T09:15:08.973Z,48.25
2016-09-01T09:16:09.830Z,48.25
2016-09-01T09:17:10.633Z,48.83
2016-09-01T09:18:11.442Z,49.41
2016-09-01T09:19:12.174Z,49.58
2016-09-01T09:20:14.562Z,50.07
2016-09-01T09:21:15.945Z,50.93
2016-09-01T09:22:17.570Z,52.58
2016-09-01T09:23:18.267Z,51.03
2016-09-01T09:24:19.389Z,51.23
2016-09-01T09:25:20.084Z,51.35
2016-09-01T09:26:20.792Z,51.42
2016-09-01T09:27:21.456Z,51.42
2016-09-01T09:28:22.156Z,51.81
2016-09-01T09:29:22.990Z,52.58
2016-09-01T09:30:23.734Z,52.77
2016-09-01T09:31:24.482Z,53.25
2016-09-01T09:32:25.219Z,52.97
2016-09-01T09:33:25.982Z,52.87
2016-09-01T09:34:26.782Z,52.87
2016-09-01T09:35:27.553Z,52.87
2016-09-01T09:36:28.302Z,52.48
2016-09-01T09:37:29.131Z,52.19
2016-09-01T09:38:29.888Z,52.55
2016-09-01T09:39:31.563Z,53.13
2016-09-01T09:40:32.259Z,53.13
2016-09-01T09:41:33.097Z,53.52
2016-09-01T09:42:33.993Z,53.81
2016-09-01T09:43:34.696Z,53.61
2016-09-01T09:44:35.412Z,53.35
2016-09-01T09:45:36.200Z,52.67
2016-09-01T09:46:36.961Z,52.87
2016-09-01T09:47:37.777Z,52.17
2016-09-01T09:48:38.517Z,52.39
2016-09-01T09:49:39.357Z,52.39
2016-09-01T09:50:40.135Z,51.9
2016-09-01T09:51:40.957Z,51.61
2016-09-01T09:52:41.829Z,51.42
2016-09-01T09:53:42.546Z,51.32
2016-09-01T09:54:43.650Z,51.51
2016-09-01T09:55:45.365Z,51.42
2016-09-01T09:56:46.130Z,51.32
2016-09-01T09:57:46.766Z,51.23
2016-09-01T09:58:48.626Z,58.37
2016-09-01T09:59:49.646Z,51.03
2016-09-01T10:00:50.952Z,51.32
2016-09-01T10:01:51.988Z,52.36
2016-09-01T10:02:52.663Z,52.84
2016-09-01T10:03:53.387Z,54.39
2016-09-01T10:04:54.042Z,52.94
2016-09-01T10:05:54.756Z,52.19
2016-09-01T10:06:55.466Z,51.29
2016-09-01T10:07:56.161Z,52.17
2016-09-01T10:08:56.877Z,52.36
2016-09-01T10:09:57.676Z,52.26
2016-09-01T10:10:58.392Z,52.55
2016-09-01T10:11:59.298Z,52.53
2016-09-01T10:13:00.000Z,54.77
2016-09-01T10:39:00.304Z,51.97
2016-09-01T10:40:00.925Z,52.36
2016-09-01T10:41:01.547Z,53.23
2016-09-01T10:42:02.157Z,52.84
2016-09-01T10:43:02.781Z,52.84
2016-09-01T10:44:03.413Z,53.2
2016-09-01T10:45:04.034Z,53.01
2016-09-01T10:46:05.376Z,53.78
2016-09-01T10:47:05.992Z,53.69
2016-09-01T10:48:06.636Z,53.78
2016-09-01T10:49:07.250Z,53.78
2016-09-01T10:50:07.967Z,53.97
2016-09-01T10:51:09.015Z,54.17
2016-09-01T10:52:09.658Z,54.07
2016-09-01T10:53:10.729Z,54.07
2016-09-01T10:54:11.893Z,54.84
2016-09-01T10:55:12.543Z,53.69
2016-09-01T10:56:13.221Z,54.07
2016-09-01T10:57:13.878Z,54.07
2016-09-01T10:58:14.544Z,55.04
2016-09-01T10:59:15.179Z,54.36
2016-09-01T11:00:15.938Z,54.36
2016-09-01T11:01:16.583Z,54.36
2016-09-01T11:02:17.271Z,55.04
2016-09-01T11:03:17.893Z,55.04
2016-09-01T11:04:18.525Z,55.04
2016-09-01T11:05:19.880Z,54.84
2016-09-01T11:06:20.538Z,54.94
2016-09-01T11:07:21.203Z,54.65
2016-09-01T11:08:21.916Z,55.23
2016-09-01T11:09:22.569Z,54.84
2016-09-01T11:10:23.203Z,55.04
2016-09-01T11:11:24.028Z,55.04
2016-09-01T11:12:24.678Z,55.42
2016-09-01T11:13:25.341Z,55.52
2016-09-01T11:14:26.051Z,55.52
2016-09-01T11:15:26.704Z,55.13
2016-09-01T11:16:27.361Z,55.42
2016-09-01T11:17:28.053Z,55.42
2016-09-01T11:18:28.693Z,55.13
2016-09-01T11:19:29.358Z,55.04
2016-09-01T11:20:30.072Z,55.62
2016-09-01T11:21:30.706Z,55.42
2016-09-01T11:22:31.398Z,55.52
2016-09-01T11:23:32.045Z,55.33
2016-09-01T11:24:32.688Z,55.62
2016-09-01T11:25:33.555Z,55.62
2016-09-01T11:26:34.191Z,55.62
2016-09-01T11:27:34.865Z,55.81
2016-09-01T11:28:35.594Z,56.29
2016-09-01T11:29:36.310Z,55.81
2016-09-01T11:30:36.954Z,55.52
2016-09-01T11:31:37.614Z,55.52
2016-09-01T11:32:38.215Z,55.71
2016-09-01T11:33:38.877Z,55.55
2016-09-01T11:34:39.529Z,55.65
2016-09-01T11:35:40.155Z,55.65
2016-09-01T11:36:40.798Z,55.65
2016-09-01T11:37:41.430Z,55.45
2016-09-01T11:38:42.075Z,55.74
2016-09-01T11:39:42.723Z,55.45
2016-09-01T11:40:43.355Z,55.33
2016-09-01T11:41:44.014Z,55.81
2016-09-01T11:42:45.073Z,55.52
2016-09-01T11:43:45.788Z,56
2016-09-01T11:44:46.434Z,55.83
2016-09-01T11:45:47.083Z,55.9
2016-09-01T11:46:47.744Z,56.1
2016-09-01T11:47:48.393Z,56.39
2016-09-01T11:48:49.181Z,56.58
2016-09-01T11:49:49.815Z,56.39
2016-09-01T11:50:50.469Z,56.51
2016-09-01T11:51:51.136Z,55.9
2016-09-01T11:52:51.791Z,56.29
2016-09-01T11:53:52.433Z,56.71
2016-09-01T11:54:53.075Z,56.41
2016-09-01T11:55:53.719Z,56.41
2016-09-01T11:56:54.364Z,56.61
2016-09-01T11:57:55.151Z,56.9
2016-09-01T11:58:55.791Z,56.61
2016-09-01T11:59:56.444Z,56.99
2016-09-01T12:00:57.091Z,56.8
2016-09-01T12:01:57.738Z,57.06
2016-09-01T12:02:58.368Z,57.09
2016-09-01T12:03:58.999Z,57.38
2016-09-01T12:04:59.647Z,57.45
2016-09-01T12:06:00.278Z,56.58
2016-09-01T12:07:00.929Z,57.64
2016-09-01T12:08:02.094Z,57.54
2016-09-01T12:09:02.742Z,57.45
2016-09-01T12:10:03.402Z,57.54
2016-09-01T12:11:04.039Z,57.74
2016-09-01T12:12:04.683Z,57.54
2016-09-01T12:13:05.362Z,57.64
2016-09-01T12:14:05.993Z,57.93
2016-09-01T12:15:06.721Z,57.64
2016-09-01T12:16:07.934Z,57.26
2016-09-01T12:17:08.605Z,57.35
2016-09-01T12:18:09.247Z,57.74
2016-09-01T12:19:09.866Z,56.96
2016-09-01T12:20:10.503Z,57.45
2016-09-01T12:21:11.152Z,56.48
2016-09-01T12:22:11.818Z,56.48
2016-09-01T12:23:12.498Z,56.58
2016-09-01T12:24:13.203Z,56.48
2016-09-01T12:25:13.987Z,56.39
2016-09-01T12:26:14.624Z,56.48
2016-09-01T12:27:15.261Z,55.9
2016-09-01T12:28:15.887Z,56.1
2016-09-01T12:29:16.582Z,55.71
2016-09-01T12:30:17.315Z,55.62
2016-09-01T12:31:17.946Z,56.48
2016-09-01T12:32:18.608Z,56.48
2016-09-01T12:33:19.251Z,55.81
2016-09-01T12:34:19.957Z,56
2016-09-01T12:35:20.620Z,55.71
2016-09-01T12:36:21.283Z,55.9
2016-09-01T12:37:21.929Z,55.71
2016-09-01T12:38:22.583Z,56
2016-09-01T12:39:23.221Z,56.56
2016-09-01T12:40:23.840Z,56.36
2016-09-01T12:41:24.488Z,56.36
2016-09-01T12:42:25.119Z,56.36
2016-09-01T12:43:25.747Z,56.65
2016-09-01T12:44:26.381Z,57.23
2016-09-01T12:45:27.006Z,57.52
2016-09-01T12:46:27.632Z,57.52
2016-09-01T12:47:28.248Z,57.62
2016-09-01T12:48:29.001Z,57.52
2016-09-01T12:49:29.619Z,58.48
2016-09-01T12:50:30.562Z,57.71
2016-09-01T12:51:34.883Z,57.71
2016-09-01T12:52:35.596Z,58.1
2016-09-01T12:53:36.270Z,58.22
2016-09-01T12:54:36.942Z,58.03
2016-09-01T12:55:37.555Z,57.93
2016-09-01T12:56:38.186Z,57.54
2016-09-01T12:57:38.838Z,57.54
2016-09-01T12:58:39.459Z,58.12
2016-09-01T12:59:40.082Z,57.64
2016-09-01T13:00:40.714Z,57.64
2016-09-01T13:01:41.328Z,57.54
2016-09-01T13:02:42.007Z,57.54
2016-09-01T13:03:42.626Z,57.64
2016-09-01T13:04:43.295Z,57.64
2016-09-01T13:05:43.915Z,57.93
2016-09-01T13:06:44.595Z,57.16
2016-09-01T13:07:45.271Z,57.54
2016-09-01T13:08:46.216Z,57.64
2016-09-01T13:09:46.864Z,57.54
2016-09-01T13:10:47.639Z,57.54
2016-09-01T13:11:48.314Z,57.16
2016-09-01T13:12:48.984Z,57.06
2016-09-01T13:13:49.604Z,56.96
2016-09-01T13:14:50.230Z,56.1
2016-09-01T13:15:50.852Z,56.61
2016-09-01T13:16:51.473Z,55.52
2016-09-01T13:17:52.129Z,56.39
2016-09-01T13:18:52.770Z,56.39
2016-09-01T13:19:53.449Z,57.06
2016-09-01T13:20:54.081Z,57.16
2016-09-01T13:21:54.778Z,57.06
2016-09-01T13:22:55.410Z,57.74
2016-09-01T13:23:56.071Z,57.54
2016-09-01T13:24:56.692Z,57.52
2016-09-01T13:25:57.377Z,57.93
2016-09-01T13:26:58.004Z,58.61
2016-09-01T13:27:58.652Z,59.25
2016-09-01T13:28:59.273Z,62.15
2016-09-01T13:29:59.918Z,63.5